Weather at San Manuel Airport

Public forecast

Using degrees Fahrenheit for public forecast. Weather courtesy of forecast.io.

Closest aviation weather report (METAR) to San Manuel Airport

Closest report is Davis Monthan Air Force Base, 30.7 nm (56.8 km) SSW. Retrieved 2022/01/24 09:58 UTC (36 minutes ago):

KDMA 240958Z AUTO 14006KT 10SM CLR 03/M01 A3006 RMK AO2 SLP169 T00321008

Closest aviation forecast (TAF) to San Manuel Airport

Closest forecast is Davis Monthan Air Force Base, 30.7 nm (56.8 km) SSW. Retrieved 2022/01/24 06:15 UTC (4 hours ago):

TAF KDMA 240600Z 2406/2512 14007KT 9999 SKC QNH3005INS BECMG 2419/2420 30011KT 9999 SKC QNH2996INS BECMG 2504/2505 14007KT 9999 SKC QNH2999INS TX18/2421Z TN02/2413Z